JBU1008 KEWR-MDST
Flight info
| Callsign | JBU1008 |
|---|---|
| Flight time | 3h 21m |
| Altitude | 34000 |
| Route | ELVAE DCT NECCK DCT DIXIE Y481 OHRYN Y488 WEBBB/M079F340 Y488 HOBOH/M079F330 Y488 CHUBY/M079F340 Y488 SAUCR/M079F330 L453 BOREX/M079F350 L453 LAMER/N0463F350 L453 RODRK/N0460F340 DCT SEKAR/N0384F190 A554 PTA T13 SGO |
| Aircraft | A321/M-SDE3FGHIRWY/LB1 |
Departure
| Time | 2026-05-05 18:42 |
|---|---|
| Airport | Newark Liberty International Airport (KEWR) |
Arrival
| Time | 2026-05-05 22:03 |
|---|---|
| Airport | Cibao International Airport (MDST) |
| Time | Latitude | Longitude | Altitude | Speed | Heading |
|---|---|---|---|---|---|
| 2026-05-05 18:20 | 40.69443 | -74.17227 | 15 ft | 0 kts | 232° |
| 2026-05-05 18:26 | 40.69443 | -74.17226 | 15 ft | 0 kts | 232° |
| 2026-05-05 18:32 | 40.69447 | -74.17221 | 15 ft | 2 kts | 232° |
| 2026-05-05 18:33 | 40.69456 | -74.17205 | 15 ft | 2 kts | 232° |
| 2026-05-05 18:33 | 40.69465 | -74.17190 | 15 ft | 2 kts | 232° |
| 2026-05-05 18:33 | 40.69471 | -74.17172 | 15 ft | 2 kts | 272° |
| 2026-05-05 18:33 | 40.69467 | -74.17152 | 15 ft | 2 kts | 303° |
| 2026-05-05 18:34 | 40.69456 | -74.17138 | 15 ft | 2 kts | 335° |
| 2026-05-05 18:34 | 40.69448 | -74.17134 | 15 ft | 1 kts | 354° |
| 2026-05-05 18:34 | 40.69442 | -74.17134 | 15 ft | 0 kts | 352° |
| 2026-05-05 18:36 | 40.69455 | -74.17136 | 15 ft | 4 kts | 352° |
| 2026-05-05 18:36 | 40.69498 | -74.17137 | 15 ft | 8 kts | 24° |
| 2026-05-05 18:36 | 40.69522 | -74.17055 | 15 ft | 12 kts | 83° |
| 2026-05-05 18:36 | 40.69517 | -74.16940 | 15 ft | 12 kts | 112° |
| 2026-05-05 18:37 | 40.69520 | -74.16845 | 15 ft | 11 kts | 31° |
| 2026-05-05 18:37 | 40.69594 | -74.16800 | 15 ft | 11 kts | 24° |
| 2026-05-05 18:37 | 40.69671 | -74.16752 | 15 ft | 12 kts | 27° |
| 2026-05-05 18:37 | 40.69749 | -74.16701 | 15 ft | 12 kts | 26° |
| 2026-05-05 18:38 | 40.69828 | -74.16650 | 15 ft | 12 kts | 27° |
| 2026-05-05 18:38 | 40.69909 | -74.16601 | 15 ft | 13 kts | 24° |
| 2026-05-05 18:38 | 40.69992 | -74.16550 | 15 ft | 13 kts | 25° |
| 2026-05-05 18:38 | 40.70063 | -74.16492 | 15 ft | 6 kts | 70° |
| 2026-05-05 18:39 | 40.70063 | -74.16486 | 15 ft | 0 kts | 86° |
| 2026-05-05 18:39 | 40.70065 | -74.16455 | 15 ft | 9 kts | 88° |
| 2026-05-05 18:39 | 40.70065 | -74.16449 | 15 ft | 0 kts | 91° |
| 2026-05-05 18:39 | 40.70064 | -74.16431 | 15 ft | 8 kts | 96° |
| 2026-05-05 18:40 | 40.70011 | -74.16373 | 15 ft | 13 kts | 202° |
| 2026-05-05 18:40 | 40.69997 | -74.16381 | 15 ft | 0 kts | 206° |
| 2026-05-05 18:41 | 40.69996 | -74.16382 | 15 ft | 0 kts | 206° |
| 2026-05-05 18:41 | 40.69939 | -74.16419 | 15 ft | 33 kts | 206° |
| 2026-05-05 18:41 | 40.69536 | -74.16673 | 15 ft | 92 kts | 204° |
| 2026-05-05 18:41 | 40.68799 | -74.17139 | 16 ft | 142 kts | 205° |
| 2026-05-05 18:42 | 40.68151 | -74.17555 | 102 ft | 161 kts | 205° |
| 2026-05-05 18:42 | 40.66917 | -74.18356 | 1026 ft | 143 kts | 206° |
| 2026-05-05 18:42 | 40.65997 | -74.18929 | 1397 ft | 150 kts | 205° |
| 2026-05-05 18:42 | 40.65054 | -74.19582 | 1740 ft | 153 kts | 210° |
| 2026-05-05 18:43 | 40.64106 | -74.20314 | 1917 ft | 161 kts | 211° |
| 2026-05-05 18:43 | 40.63128 | -74.21083 | 2099 ft | 170 kts | 211° |
| 2026-05-05 18:43 | 40.62432 | -74.21626 | 2232 ft | 176 kts | 211° |
| 2026-05-05 18:43 | 40.60969 | -74.22765 | 2505 ft | 190 kts | 212° |
| 2026-05-05 18:44 | 40.60185 | -74.23372 | 2652 ft | 197 kts | 212° |
| 2026-05-05 18:44 | 40.58517 | -74.24660 | 2911 ft | 217 kts | 211° |
| 2026-05-05 18:44 | 40.57635 | -74.25336 | 3103 ft | 225 kts | 211° |
| 2026-05-05 18:44 | 40.55732 | -74.26739 | 3557 ft | 242 kts | 203° |
| 2026-05-05 18:45 | 40.54042 | -74.27093 | 4102 ft | 252 kts | 179° |
| 2026-05-05 18:45 | 40.52898 | -74.26765 | 4525 ft | 258 kts | 166° |
| 2026-05-05 18:45 | 40.50644 | -74.25668 | 5308 ft | 264 kts | 165° |
| 2026-05-05 18:45 | 40.48925 | -74.24811 | 5907 ft | 267 kts | 165° |
| 2026-05-05 18:46 | 40.47179 | -74.23939 | 6548 ft | 269 kts | 165° |
| 2026-05-05 18:46 | 40.46021 | -74.23362 | 6963 ft | 271 kts | 166° |
| 2026-05-05 18:46 | 40.43657 | -74.22188 | 7754 ft | 275 kts | 165° |
| 2026-05-05 18:46 | 40.41857 | -74.21295 | 8379 ft | 277 kts | 166° |
| 2026-05-05 18:47 | 40.40062 | -74.20403 | 8977 ft | 279 kts | 166° |
| 2026-05-05 18:47 | 40.38245 | -74.19505 | 9533 ft | 282 kts | 166° |
| 2026-05-05 18:47 | 40.36387 | -74.18588 | 10072 ft | 286 kts | 166° |
| 2026-05-05 18:47 | 40.34501 | -74.17660 | 10379 ft | 298 kts | 167° |
| 2026-05-05 18:48 | 40.32497 | -74.16747 | 10628 ft | 309 kts | 172° |
| 2026-05-05 18:48 | 40.30358 | -74.16190 | 10877 ft | 317 kts | 180° |
| 2026-05-05 18:48 | 40.28858 | -74.16069 | 11040 ft | 322 kts | 185° |
| 2026-05-05 18:48 | 40.25795 | -74.16106 | 11363 ft | 338 kts | 187° |
| 2026-05-05 18:49 | 40.24246 | -74.16143 | 11599 ft | 343 kts | 187° |
| 2026-05-05 18:49 | 40.21816 | -74.16202 | 12107 ft | 346 kts | 187° |
| 2026-05-05 18:49 | 40.18628 | -74.16274 | 12803 ft | 349 kts | 187° |
| 2026-05-05 18:49 | 40.16180 | -74.16329 | 13259 ft | 354 kts | 187° |
| 2026-05-05 18:50 | 40.13695 | -74.16014 | 13676 ft | 369 kts | 170° |
| 2026-05-05 18:50 | 40.11311 | -74.14571 | 14113 ft | 387 kts | 149° |
| 2026-05-05 18:50 | 40.09388 | -74.12059 | 14590 ft | 401 kts | 128° |
| 2026-05-05 18:50 | 40.08206 | -74.08669 | 15013 ft | 413 kts | 109° |
| 2026-05-05 18:51 | 40.07488 | -74.05051 | 15574 ft | 414 kts | 106° |
| 2026-05-05 18:51 | 40.06796 | -74.01372 | 16021 ft | 418 kts | 105° |
| 2026-05-05 18:51 | 40.06093 | -73.97704 | 16493 ft | 420 kts | 106° |
| 2026-05-05 18:51 | 40.05367 | -73.93978 | 16942 ft | 423 kts | 106° |
| 2026-05-05 18:52 | 40.04632 | -73.90288 | 17426 ft | 424 kts | 106° |
| 2026-05-05 18:52 | 40.04123 | -73.87755 | 17743 ft | 426 kts | 106° |
| 2026-05-05 18:52 | 40.03117 | -73.82783 | 18342 ft | 428 kts | 106° |
| 2026-05-05 18:52 | 40.02611 | -73.80288 | 18627 ft | 430 kts | 107° |
| 2026-05-05 18:53 | 40.01588 | -73.75249 | 19214 ft | 433 kts | 106° |
| 2026-05-05 18:53 | 40.00805 | -73.71415 | 19663 ft | 434 kts | 107° |
| 2026-05-05 18:53 | 40.00284 | -73.68877 | 19939 ft | 435 kts | 107° |
| 2026-05-05 18:53 | 39.99246 | -73.63820 | 20529 ft | 436 kts | 107° |
| 2026-05-05 18:54 | 39.98719 | -73.61251 | 20787 ft | 438 kts | 107° |
| 2026-05-05 18:54 | 39.97934 | -73.57436 | 21183 ft | 439 kts | 107° |
| 2026-05-05 18:54 | 39.96872 | -73.52284 | 21675 ft | 442 kts | 107° |
| 2026-05-05 18:54 | 39.96070 | -73.48406 | 22064 ft | 443 kts | 107° |
| 2026-05-05 18:55 | 39.95259 | -73.44494 | 22429 ft | 445 kts | 107° |
| 2026-05-05 18:55 | 39.94456 | -73.40620 | 22773 ft | 447 kts | 107° |
| 2026-05-05 18:55 | 39.93639 | -73.36701 | 23116 ft | 449 kts | 107° |
| 2026-05-05 18:55 | 39.92812 | -73.32736 | 23468 ft | 450 kts | 108° |
| 2026-05-05 18:56 | 39.91993 | -73.28817 | 23774 ft | 452 kts | 108° |
| 2026-05-05 18:56 | 39.91163 | -73.24854 | 24085 ft | 453 kts | 108° |
| 2026-05-05 18:56 | 39.90336 | -73.20915 | 24374 ft | 455 kts | 108° |
| 2026-05-05 18:56 | 39.89499 | -73.16935 | 24647 ft | 458 kts | 107° |
| 2026-05-05 18:57 | 39.88656 | -73.12920 | 24925 ft | 459 kts | 107° |
| 2026-05-05 18:57 | 39.87801 | -73.08868 | 25225 ft | 461 kts | 108° |
| 2026-05-05 18:57 | 39.87242 | -73.06213 | 25395 ft | 462 kts | 107° |
| 2026-05-05 18:57 | 39.86093 | -73.00776 | 25787 ft | 464 kts | 107° |
| 2026-05-05 18:58 | 39.85527 | -72.98099 | 25963 ft | 465 kts | 107° |
| 2026-05-05 18:58 | 39.84653 | -72.93979 | 26201 ft | 468 kts | 107° |
| 2026-05-05 18:58 | 39.83787 | -72.89907 | 26475 ft | 469 kts | 107° |
| 2026-05-05 18:58 | 39.82911 | -72.85796 | 26708 ft | 471 kts | 107° |
| 2026-05-05 18:59 | 39.81615 | -72.80403 | 27005 ft | 473 kts | 111° |
| 2026-05-05 18:59 | 39.80527 | -72.76341 | 27235 ft | 475 kts | 111° |
| 2026-05-05 18:59 | 39.79422 | -72.72275 | 27447 ft | 477 kts | 111° |
| 2026-05-05 18:59 | 39.78322 | -72.68238 | 27626 ft | 479 kts | 111° |
| 2026-05-05 19:00 | 39.77206 | -72.64142 | 27844 ft | 481 kts | 111° |
| 2026-05-05 19:00 | 39.76089 | -72.60038 | 28040 ft | 483 kts | 111° |
| 2026-05-05 19:00 | 39.74961 | -72.55885 | 28300 ft | 484 kts | 111° |
| 2026-05-05 19:00 | 39.73841 | -72.51771 | 28554 ft | 484 kts | 111° |
| 2026-05-05 19:01 | 39.72715 | -72.47658 | 28856 ft | 484 kts | 111° |
| 2026-05-05 19:01 | 39.71588 | -72.43550 | 29138 ft | 483 kts | 111° |
| 2026-05-05 19:01 | 39.70840 | -72.40818 | 29301 ft | 484 kts | 111° |
| 2026-05-05 19:01 | 39.69328 | -72.35311 | 29657 ft | 483 kts | 111° |
| 2026-05-05 19:02 | 39.68207 | -72.31236 | 29906 ft | 483 kts | 112° |
| 2026-05-05 19:02 | 39.67051 | -72.27130 | 30139 ft | 483 kts | 114° |
| 2026-05-05 19:02 | 39.65671 | -72.23113 | 30390 ft | 480 kts | 120° |
| 2026-05-05 19:02 | 39.64610 | -72.20561 | 30572 ft | 478 kts | 123° |
| 2026-05-05 19:03 | 39.62200 | -72.15832 | 30930 ft | 473 kts | 130° |
| 2026-05-05 19:03 | 39.60813 | -72.13585 | 31131 ft | 470 kts | 134° |
| 2026-05-05 19:03 | 39.57899 | -72.09425 | 31475 ft | 468 kts | 136° |
| 2026-05-05 19:03 | 39.55676 | -72.06360 | 31705 ft | 467 kts | 137° |
| 2026-05-05 19:04 | 39.54203 | -72.04332 | 31848 ft | 467 kts | 136° |
| 2026-05-05 19:04 | 39.51242 | -72.00240 | 32157 ft | 466 kts | 136° |
| 2026-05-05 19:04 | 39.49021 | -71.97161 | 32401 ft | 465 kts | 136° |
| 2026-05-05 19:04 | 39.46832 | -71.94124 | 32630 ft | 464 kts | 136° |
| 2026-05-05 19:05 | 39.44630 | -71.91068 | 32877 ft | 463 kts | 136° |
| 2026-05-05 19:05 | 39.43152 | -71.89015 | 33020 ft | 462 kts | 136° |
| 2026-05-05 19:05 | 39.40255 | -71.84996 | 33313 ft | 461 kts | 136° |
| 2026-05-05 19:05 | 39.38065 | -71.81965 | 33472 ft | 462 kts | 136° |
| 2026-05-05 19:06 | 39.35873 | -71.78930 | 33606 ft | 463 kts | 136° |
| 2026-05-05 19:06 | 39.34396 | -71.76887 | 33716 ft | 463 kts | 136° |
| 2026-05-05 19:06 | 39.32216 | -71.73870 | 33885 ft | 463 kts | 136° |
| 2026-05-05 19:06 | 39.29275 | -71.69810 | 34087 ft | 463 kts | 136° |
| 2026-05-05 19:07 | 39.27065 | -71.66765 | 34223 ft | 464 kts | 136° |
| 2026-05-05 19:07 | 39.25561 | -71.64799 | 34306 ft | 463 kts | 140° |
| 2026-05-05 19:07 | 39.23090 | -71.62181 | 34442 ft | 459 kts | 148° |
| 2026-05-05 19:07 | 39.19416 | -71.59379 | 34630 ft | 454 kts | 158° |
| 2026-05-05 19:08 | 39.13518 | -71.56879 | 34854 ft | 448 kts | 173° |
| 2026-05-05 19:08 | 39.08371 | -71.56222 | 34987 ft | 445 kts | 180° |
| 2026-05-05 19:09 | 39.02203 | -71.55881 | 34992 ft | 446 kts | 181° |
| 2026-05-05 19:09 | 38.94981 | -71.55466 | 34996 ft | 446 kts | 181° |
| 2026-05-05 19:10 | 38.89807 | -71.55151 | 35001 ft | 446 kts | 181° |
| 2026-05-05 19:10 | 38.82513 | -71.54702 | 35008 ft | 447 kts | 181° |
| 2026-05-05 19:11 | 38.77381 | -71.54391 | 35011 ft | 446 kts | 181° |
| 2026-05-05 19:11 | 38.70140 | -71.53955 | 35012 ft | 447 kts | 181° |
| 2026-05-05 19:12 | 38.64994 | -71.53650 | 35012 ft | 446 kts | 182° |
| 2026-05-05 19:12 | 38.58786 | -71.53906 | 35012 ft | 443 kts | 189° |
| 2026-05-05 19:13 | 38.52768 | -71.55193 | 35013 ft | 439 kts | 197° |
| 2026-05-05 19:13 | 38.46007 | -71.57948 | 35012 ft | 436 kts | 205° |
| 2026-05-05 19:14 | 38.41315 | -71.60369 | 35013 ft | 436 kts | 205° |
| 2026-05-05 19:14 | 38.35732 | -71.63253 | 35013 ft | 436 kts | 205° |
| 2026-05-05 19:15 | 38.30059 | -71.66173 | 35014 ft | 436 kts | 205° |
| 2026-05-05 19:15 | 38.23534 | -71.69525 | 35017 ft | 436 kts | 205° |
| 2026-05-05 19:16 | 38.18858 | -71.71922 | 35020 ft | 436 kts | 205° |
| 2026-05-05 19:16 | 38.13219 | -71.74807 | 35021 ft | 437 kts | 205° |
| 2026-05-05 19:17 | 38.07591 | -71.77683 | 35021 ft | 437 kts | 205° |
| 2026-05-05 19:17 | 38.01015 | -71.81043 | 35021 ft | 437 kts | 205° |
| 2026-05-05 19:18 | 37.96338 | -71.83427 | 35021 ft | 437 kts | 205° |
| 2026-05-05 19:18 | 37.89766 | -71.86770 | 35021 ft | 437 kts | 205° |
| 2026-05-05 19:19 | 37.84133 | -71.89629 | 35025 ft | 437 kts | 205° |
| 2026-05-05 19:19 | 37.78467 | -71.92499 | 35032 ft | 437 kts | 205° |
| 2026-05-05 19:20 | 37.73779 | -71.94869 | 35039 ft | 437 kts | 205° |
| 2026-05-05 19:20 | 37.68148 | -71.97720 | 35045 ft | 436 kts | 206° |
| 2026-05-05 19:21 | 37.62660 | -72.00857 | 35048 ft | 434 kts | 208° |
| 2026-05-05 19:21 | 37.56295 | -72.04576 | 35050 ft | 435 kts | 208° |
| 2026-05-05 19:22 | 37.51706 | -72.07252 | 35051 ft | 435 kts | 208° |
| 2026-05-05 19:22 | 37.46209 | -72.10454 | 35052 ft | 435 kts | 208° |
| 2026-05-05 19:23 | 37.40731 | -72.13639 | 35053 ft | 435 kts | 208° |
| 2026-05-05 19:23 | 37.34339 | -72.17350 | 35054 ft | 435 kts | 208° |
| 2026-05-05 19:24 | 37.29777 | -72.19992 | 35055 ft | 435 kts | 208° |
| 2026-05-05 19:24 | 37.24305 | -72.23158 | 35057 ft | 435 kts | 208° |
| 2026-05-05 19:25 | 37.17905 | -72.26859 | 35060 ft | 435 kts | 208° |
| 2026-05-05 19:25 | 37.12369 | -72.30057 | 35063 ft | 435 kts | 208° |
| 2026-05-05 19:26 | 37.07762 | -72.32710 | 35066 ft | 435 kts | 208° |
| 2026-05-05 19:26 | 37.02219 | -72.35897 | 35067 ft | 435 kts | 208° |
| 2026-05-05 19:27 | 36.96717 | -72.39056 | 35068 ft | 435 kts | 208° |
| 2026-05-05 19:27 | 36.90228 | -72.42773 | 35068 ft | 435 kts | 208° |
| 2026-05-05 19:28 | 36.85532 | -72.45458 | 35067 ft | 434 kts | 208° |
| 2026-05-05 19:28 | 36.79906 | -72.48670 | 35067 ft | 434 kts | 208° |
| 2026-05-05 19:29 | 36.74007 | -72.51247 | 35067 ft | 439 kts | 197° |
| 2026-05-05 19:29 | 36.66720 | -72.52155 | 35067 ft | 446 kts | 182° |
| 2026-05-05 19:30 | 36.60482 | -72.51066 | 35069 ft | 452 kts | 170° |
| 2026-05-05 19:30 | 36.55293 | -72.49378 | 35070 ft | 452 kts | 169° |
| 2026-05-05 19:31 | 36.49050 | -72.47301 | 35071 ft | 452 kts | 169° |
| 2026-05-05 19:31 | 36.41631 | -72.44866 | 35075 ft | 451 kts | 169° |
| 2026-05-05 19:32 | 36.36417 | -72.43169 | 35076 ft | 450 kts | 169° |
| 2026-05-05 19:32 | 36.30122 | -72.41125 | 35076 ft | 449 kts | 169° |
| 2026-05-05 19:33 | 36.23919 | -72.39114 | 35076 ft | 449 kts | 169° |
| 2026-05-05 19:33 | 36.16699 | -72.36778 | 35076 ft | 448 kts | 169° |
| 2026-05-05 19:34 | 36.11529 | -72.35109 | 35076 ft | 448 kts | 169° |
| 2026-05-05 19:35 | 36.01169 | -72.32958 | 35076 ft | 442 kts | 180° |
| 2026-05-05 19:35 | 35.96019 | -72.32798 | 35077 ft | 440 kts | 184° |
| 2026-05-05 19:36 | 35.89902 | -72.32896 | 35085 ft | 440 kts | 184° |
| 2026-05-05 19:36 | 35.83777 | -72.32988 | 35098 ft | 440 kts | 184° |
| 2026-05-05 19:37 | 35.77694 | -72.33076 | 35111 ft | 440 kts | 184° |
| 2026-05-05 19:37 | 35.71587 | -72.33164 | 35119 ft | 440 kts | 184° |
| 2026-05-05 19:38 | 35.65489 | -72.33251 | 35122 ft | 440 kts | 184° |
| 2026-05-05 19:38 | 35.59379 | -72.33339 | 35123 ft | 440 kts | 184° |
| 2026-05-05 19:39 | 35.53253 | -72.33426 | 35123 ft | 440 kts | 184° |
| 2026-05-05 19:39 | 35.47141 | -72.33514 | 35124 ft | 441 kts | 184° |
| 2026-05-05 19:40 | 35.41053 | -72.33600 | 35127 ft | 441 kts | 184° |
| 2026-05-05 19:40 | 35.34930 | -72.33687 | 35133 ft | 441 kts | 184° |
| 2026-05-05 19:41 | 35.28819 | -72.33773 | 35138 ft | 441 kts | 184° |
| 2026-05-05 19:41 | 35.22687 | -72.33859 | 35140 ft | 442 kts | 184° |
| 2026-05-05 19:42 | 35.16576 | -72.33945 | 35141 ft | 442 kts | 184° |
| 2026-05-05 19:42 | 35.10419 | -72.34030 | 35141 ft | 442 kts | 184° |
| 2026-05-05 19:43 | 35.04327 | -72.34114 | 35141 ft | 442 kts | 184° |
| 2026-05-05 19:43 | 34.98208 | -72.34250 | 35141 ft | 441 kts | 186° |
| 2026-05-05 19:44 | 34.92129 | -72.34987 | 35141 ft | 438 kts | 191° |
| 2026-05-05 19:44 | 34.86108 | -72.35970 | 35142 ft | 438 kts | 191° |
| 2026-05-05 19:45 | 34.80112 | -72.36948 | 35141 ft | 437 kts | 191° |
| 2026-05-05 19:45 | 34.74056 | -72.37704 | 35141 ft | 440 kts | 186° |
| 2026-05-05 19:46 | 34.67969 | -72.37690 | 35141 ft | 442 kts | 180° |
| 2026-05-05 19:46 | 34.61831 | -72.37058 | 35142 ft | 443 kts | 179° |
| 2026-05-05 19:47 | 34.55727 | -72.36391 | 35142 ft | 443 kts | 179° |
| 2026-05-05 19:47 | 34.49604 | -72.35725 | 35141 ft | 442 kts | 179° |
| 2026-05-05 19:48 | 34.43478 | -72.35060 | 35141 ft | 442 kts | 179° |
| 2026-05-05 19:48 | 34.37373 | -72.34400 | 35141 ft | 442 kts | 179° |
| 2026-05-05 19:49 | 34.31292 | -72.33742 | 35142 ft | 441 kts | 179° |
| 2026-05-05 19:49 | 34.25189 | -72.33083 | 35141 ft | 441 kts | 179° |
| 2026-05-05 19:50 | 34.18103 | -72.32320 | 35141 ft | 440 kts | 179° |
| 2026-05-05 19:50 | 34.13034 | -72.31773 | 35141 ft | 440 kts | 179° |
| 2026-05-05 19:51 | 34.06953 | -72.31119 | 35141 ft | 440 kts | 179° |
| 2026-05-05 19:51 | 34.00859 | -72.30449 | 35141 ft | 441 kts | 178° |
| 2026-05-05 19:52 | 33.94814 | -72.29258 | 35141 ft | 444 kts | 171° |
| 2026-05-05 19:52 | 33.88822 | -72.27613 | 35142 ft | 444 kts | 171° |
| 2026-05-05 19:53 | 33.82814 | -72.25960 | 35141 ft | 444 kts | 171° |
| 2026-05-05 19:53 | 33.76821 | -72.24314 | 35141 ft | 444 kts | 171° |
| 2026-05-05 19:54 | 33.70818 | -72.22669 | 35141 ft | 444 kts | 171° |
| 2026-05-05 19:54 | 33.64801 | -72.21022 | 35141 ft | 444 kts | 171° |
| 2026-05-05 19:55 | 33.58747 | -72.19368 | 35141 ft | 445 kts | 171° |
| 2026-05-05 19:55 | 33.52709 | -72.17720 | 35141 ft | 445 kts | 171° |
| 2026-05-05 19:56 | 33.46705 | -72.16084 | 35141 ft | 445 kts | 171° |
| 2026-05-05 19:56 | 33.40657 | -72.14439 | 35141 ft | 445 kts | 171° |
| 2026-05-05 19:57 | 33.34636 | -72.12803 | 35141 ft | 446 kts | 171° |
| 2026-05-05 19:57 | 33.28560 | -72.11153 | 35141 ft | 446 kts | 171° |
| 2026-05-05 19:58 | 33.22544 | -72.09523 | 35141 ft | 446 kts | 171° |
| 2026-05-05 19:58 | 33.16507 | -72.07887 | 35141 ft | 446 kts | 171° |
| 2026-05-05 19:59 | 33.10435 | -72.06245 | 35141 ft | 447 kts | 171° |
| 2026-05-05 19:59 | 33.04353 | -72.04603 | 35141 ft | 447 kts | 172° |
| 2026-05-05 20:00 | 32.98514 | -72.03033 | 35140 ft | 447 kts | 172° |
| 2026-05-05 20:00 | 32.92353 | -72.01380 | 35138 ft | 447 kts | 172° |
| 2026-05-05 20:01 | 32.86209 | -71.99729 | 35138 ft | 447 kts | 172° |
| 2026-05-05 20:01 | 32.80060 | -71.98077 | 35135 ft | 442 kts | 172° |
| 2026-05-05 20:02 | 32.73997 | -71.96454 | 35134 ft | 442 kts | 172° |
| 2026-05-05 20:02 | 32.67883 | -71.94821 | 35134 ft | 442 kts | 172° |
| 2026-05-05 20:03 | 32.61738 | -71.93180 | 35134 ft | 442 kts | 172° |
| 2026-05-05 20:03 | 32.55568 | -71.91534 | 35134 ft | 443 kts | 172° |
| 2026-05-05 20:04 | 32.49431 | -71.89901 | 35134 ft | 443 kts | 172° |
| 2026-05-05 20:04 | 32.43408 | -71.88299 | 35134 ft | 443 kts | 172° |
| 2026-05-05 20:05 | 32.37376 | -71.86697 | 35135 ft | 444 kts | 172° |
| 2026-05-05 20:05 | 32.31353 | -71.85098 | 35138 ft | 444 kts | 172° |
| 2026-05-05 20:06 | 32.25361 | -71.83512 | 35140 ft | 444 kts | 172° |
| 2026-05-05 20:06 | 32.19351 | -71.81920 | 35141 ft | 444 kts | 172° |
| 2026-05-05 20:07 | 32.13322 | -71.80325 | 35141 ft | 444 kts | 172° |
| 2026-05-05 20:07 | 32.07274 | -71.78728 | 35141 ft | 444 kts | 172° |
| 2026-05-05 20:08 | 32.01286 | -71.77153 | 35141 ft | 444 kts | 172° |
| 2026-05-05 20:08 | 31.95256 | -71.75569 | 35142 ft | 444 kts | 172° |
| 2026-05-05 20:09 | 31.89212 | -71.73984 | 35142 ft | 444 kts | 172° |
| 2026-05-05 20:09 | 31.83200 | -71.72407 | 35141 ft | 443 kts | 173° |
| 2026-05-05 20:10 | 31.77200 | -71.70836 | 35141 ft | 443 kts | 173° |
| 2026-05-05 20:10 | 31.71196 | -71.69264 | 35141 ft | 443 kts | 173° |
| 2026-05-05 20:11 | 31.65204 | -71.67699 | 35141 ft | 443 kts | 173° |
| 2026-05-05 20:11 | 31.59183 | -71.66127 | 35141 ft | 443 kts | 173° |
| 2026-05-05 20:12 | 31.53221 | -71.64573 | 35141 ft | 442 kts | 173° |
| 2026-05-05 20:12 | 31.47206 | -71.63008 | 35141 ft | 442 kts | 173° |
| 2026-05-05 20:13 | 31.41231 | -71.61455 | 35141 ft | 442 kts | 173° |
| 2026-05-05 20:13 | 31.35253 | -71.59905 | 35141 ft | 441 kts | 173° |
| 2026-05-05 20:14 | 31.29280 | -71.58358 | 35141 ft | 441 kts | 173° |
| 2026-05-05 20:14 | 31.23304 | -71.56813 | 35141 ft | 442 kts | 173° |
| 2026-05-05 20:15 | 31.17349 | -71.55273 | 35141 ft | 441 kts | 173° |
| 2026-05-05 20:15 | 31.11366 | -71.53728 | 35141 ft | 441 kts | 174° |
| 2026-05-05 20:16 | 31.05381 | -71.52184 | 35139 ft | 441 kts | 174° |
| 2026-05-05 20:16 | 30.99395 | -71.50643 | 35136 ft | 441 kts | 174° |
| 2026-05-05 20:17 | 30.93428 | -71.49107 | 35135 ft | 441 kts | 174° |
| 2026-05-05 20:17 | 30.87477 | -71.47578 | 35135 ft | 441 kts | 174° |
| 2026-05-05 20:18 | 30.81467 | -71.46036 | 35134 ft | 441 kts | 174° |
| 2026-05-05 20:18 | 30.75513 | -71.44511 | 35134 ft | 441 kts | 174° |
| 2026-05-05 20:19 | 30.69525 | -71.42979 | 35134 ft | 441 kts | 174° |
| 2026-05-05 20:19 | 30.63553 | -71.41452 | 35128 ft | 441 kts | 174° |
| 2026-05-05 20:20 | 30.57569 | -71.39925 | 35122 ft | 441 kts | 174° |
| 2026-05-05 20:20 | 30.51602 | -71.38403 | 35118 ft | 442 kts | 174° |
| 2026-05-05 20:21 | 30.45616 | -71.36879 | 35116 ft | 442 kts | 174° |
| 2026-05-05 20:21 | 30.39619 | -71.35354 | 35115 ft | 442 kts | 174° |
| 2026-05-05 20:22 | 30.33616 | -71.33829 | 35114 ft | 442 kts | 174° |
| 2026-05-05 20:22 | 30.27649 | -71.32315 | 35115 ft | 442 kts | 174° |
| 2026-05-05 20:23 | 30.21667 | -71.30800 | 35115 ft | 442 kts | 174° |
| 2026-05-05 20:23 | 30.15671 | -71.29282 | 35115 ft | 442 kts | 174° |
| 2026-05-05 20:24 | 30.09701 | -71.27773 | 35115 ft | 442 kts | 174° |
| 2026-05-05 20:24 | 30.03702 | -71.26257 | 35115 ft | 442 kts | 175° |
| 2026-05-05 20:25 | 29.97718 | -71.24747 | 35114 ft | 442 kts | 175° |
| 2026-05-05 20:25 | 29.90716 | -71.22984 | 35115 ft | 443 kts | 175° |
| 2026-05-05 20:26 | 29.85722 | -71.21729 | 35115 ft | 443 kts | 175° |
| 2026-05-05 20:26 | 29.79736 | -71.20225 | 35115 ft | 442 kts | 175° |
| 2026-05-05 20:27 | 29.73734 | -71.18719 | 35115 ft | 441 kts | 175° |
| 2026-05-05 20:27 | 29.67781 | -71.17228 | 35115 ft | 441 kts | 175° |
| 2026-05-05 20:28 | 29.61773 | -71.15724 | 35115 ft | 441 kts | 175° |
| 2026-05-05 20:28 | 29.55815 | -71.14234 | 35115 ft | 441 kts | 175° |
| 2026-05-05 20:29 | 29.49825 | -71.12739 | 35115 ft | 441 kts | 175° |
| 2026-05-05 20:29 | 29.43844 | -71.11247 | 35115 ft | 441 kts | 175° |
| 2026-05-05 20:30 | 29.37860 | -71.09757 | 35114 ft | 441 kts | 175° |
| 2026-05-05 20:30 | 29.31921 | -71.08278 | 35112 ft | 441 kts | 175° |
| 2026-05-05 20:31 | 29.25927 | -71.06789 | 35109 ft | 441 kts | 175° |
| 2026-05-05 20:31 | 29.19953 | -71.05306 | 35107 ft | 441 kts | 175° |
| 2026-05-05 20:32 | 29.13984 | -71.03825 | 35106 ft | 440 kts | 175° |
| 2026-05-05 20:32 | 29.08022 | -71.02348 | 35106 ft | 440 kts | 176° |
| 2026-05-05 20:33 | 29.02077 | -71.00877 | 35106 ft | 440 kts | 176° |
| 2026-05-05 20:33 | 28.96067 | -70.99390 | 35106 ft | 440 kts | 176° |
| 2026-05-05 20:34 | 28.90109 | -70.97918 | 35106 ft | 440 kts | 176° |
| 2026-05-05 20:34 | 28.84164 | -70.96453 | 35108 ft | 440 kts | 176° |
| 2026-05-05 20:35 | 28.78196 | -70.94990 | 35108 ft | 440 kts | 176° |
| 2026-05-05 20:35 | 28.72241 | -70.93530 | 35108 ft | 440 kts | 176° |
| 2026-05-05 20:36 | 28.66292 | -70.92071 | 35108 ft | 439 kts | 176° |
| 2026-05-05 20:36 | 28.60355 | -70.90616 | 35107 ft | 439 kts | 176° |
| 2026-05-05 20:37 | 28.54401 | -70.89157 | 35106 ft | 439 kts | 176° |
| 2026-05-05 20:37 | 28.48416 | -70.87694 | 35106 ft | 439 kts | 176° |
| 2026-05-05 20:38 | 28.42494 | -70.86246 | 35106 ft | 439 kts | 176° |
| 2026-05-05 20:38 | 28.36520 | -70.84788 | 35106 ft | 439 kts | 176° |
| 2026-05-05 20:39 | 28.30556 | -70.83334 | 35106 ft | 439 kts | 176° |
| 2026-05-05 20:39 | 28.24613 | -70.81886 | 35105 ft | 438 kts | 176° |
| 2026-05-05 20:40 | 28.18678 | -70.80443 | 35103 ft | 438 kts | 176° |
| 2026-05-05 20:40 | 28.12724 | -70.78996 | 35100 ft | 438 kts | 176° |
| 2026-05-05 20:41 | 28.06801 | -70.77558 | 35098 ft | 438 kts | 176° |
| 2026-05-05 20:41 | 28.00831 | -70.76112 | 35097 ft | 438 kts | 176° |
| 2026-05-05 20:42 | 27.94872 | -70.74669 | 35097 ft | 439 kts | 176° |
| 2026-05-05 20:42 | 27.88947 | -70.73236 | 35098 ft | 439 kts | 176° |
| 2026-05-05 20:43 | 27.82979 | -70.71794 | 35097 ft | 439 kts | 176° |
| 2026-05-05 20:43 | 27.77012 | -70.70355 | 35097 ft | 439 kts | 176° |
| 2026-05-05 20:44 | 27.71052 | -70.68918 | 35097 ft | 439 kts | 176° |
| 2026-05-05 20:44 | 27.65102 | -70.67485 | 35097 ft | 439 kts | 176° |
| 2026-05-05 20:45 | 27.56147 | -70.65332 | 35094 ft | 440 kts | 176° |
| 2026-05-05 20:45 | 27.50184 | -70.63900 | 35091 ft | 441 kts | 176° |
| 2026-05-05 20:46 | 27.44249 | -70.62476 | 35089 ft | 441 kts | 176° |
| 2026-05-05 20:46 | 27.38258 | -70.61041 | 35088 ft | 441 kts | 176° |
| 2026-05-05 20:47 | 27.32287 | -70.59612 | 35088 ft | 441 kts | 176° |
| 2026-05-05 20:47 | 27.26290 | -70.58177 | 35088 ft | 441 kts | 176° |
| 2026-05-05 20:48 | 27.20258 | -70.56738 | 35088 ft | 442 kts | 176° |
| 2026-05-05 20:48 | 27.14285 | -70.55312 | 35088 ft | 442 kts | 176° |
| 2026-05-05 20:49 | 27.08262 | -70.53878 | 35088 ft | 443 kts | 176° |
| 2026-05-05 20:49 | 27.02233 | -70.52442 | 35088 ft | 444 kts | 176° |
| 2026-05-05 20:50 | 26.96182 | -70.51006 | 35087 ft | 444 kts | 176° |
| 2026-05-05 20:50 | 26.90135 | -70.49567 | 35084 ft | 444 kts | 176° |
| 2026-05-05 20:51 | 26.84124 | -70.48142 | 35081 ft | 444 kts | 176° |
| 2026-05-05 20:51 | 26.78059 | -70.46705 | 35079 ft | 444 kts | 176° |
| 2026-05-05 20:52 | 26.72050 | -70.45282 | 35078 ft | 445 kts | 176° |
| 2026-05-05 20:52 | 26.65974 | -70.43845 | 35078 ft | 445 kts | 175° |
| 2026-05-05 20:53 | 26.59927 | -70.42416 | 35078 ft | 445 kts | 175° |
| 2026-05-05 20:53 | 26.53878 | -70.40990 | 35077 ft | 445 kts | 175° |
| 2026-05-05 20:54 | 26.47834 | -70.39565 | 35078 ft | 445 kts | 175° |
| 2026-05-05 20:54 | 26.41777 | -70.38139 | 35078 ft | 445 kts | 175° |
| 2026-05-05 20:55 | 26.35790 | -70.36730 | 35078 ft | 445 kts | 175° |
| 2026-05-05 20:55 | 26.29733 | -70.35307 | 35076 ft | 446 kts | 175° |
| 2026-05-05 20:56 | 26.23664 | -70.33883 | 35072 ft | 446 kts | 175° |
| 2026-05-05 20:56 | 26.17601 | -70.32461 | 35071 ft | 446 kts | 175° |
| 2026-05-05 20:57 | 26.11551 | -70.31043 | 35070 ft | 446 kts | 175° |
| 2026-05-05 20:57 | 26.05480 | -70.29623 | 35069 ft | 445 kts | 175° |
| 2026-05-05 20:58 | 25.99425 | -70.28207 | 35069 ft | 445 kts | 175° |
| 2026-05-05 20:58 | 25.93354 | -70.26791 | 35069 ft | 446 kts | 175° |
| 2026-05-05 20:59 | 25.87210 | -70.25357 | 35069 ft | 446 kts | 175° |
| 2026-05-05 20:59 | 25.81138 | -70.23942 | 35068 ft | 446 kts | 175° |
| 2026-05-05 21:00 | 25.75063 | -70.22528 | 35065 ft | 446 kts | 175° |
| 2026-05-05 21:00 | 25.69007 | -70.21121 | 35063 ft | 446 kts | 175° |
| 2026-05-05 21:01 | 25.62946 | -70.19713 | 35062 ft | 446 kts | 175° |
| 2026-05-05 21:01 | 25.56856 | -70.18299 | 35062 ft | 446 kts | 175° |
| 2026-05-05 21:02 | 25.50800 | -70.16895 | 35062 ft | 447 kts | 175° |
| 2026-05-05 21:02 | 25.44701 | -70.15483 | 35062 ft | 447 kts | 175° |
| 2026-05-05 21:03 | 25.38607 | -70.14074 | 35062 ft | 448 kts | 175° |
| 2026-05-05 21:03 | 25.32510 | -70.12664 | 35062 ft | 449 kts | 175° |
| 2026-05-05 21:04 | 25.26406 | -70.11255 | 35061 ft | 450 kts | 175° |
| 2026-05-05 21:04 | 25.20278 | -70.09840 | 35062 ft | 450 kts | 175° |
| 2026-05-05 21:05 | 25.14159 | -70.08428 | 35062 ft | 450 kts | 175° |
| 2026-05-05 21:05 | 25.08043 | -70.07019 | 35062 ft | 451 kts | 175° |
| 2026-05-05 21:06 | 25.01909 | -70.05684 | 35061 ft | 450 kts | 178° |
| 2026-05-05 21:06 | 24.95729 | -70.04971 | 35061 ft | 444 kts | 184° |
| 2026-05-05 21:07 | 24.89568 | -70.04688 | 35062 ft | 444 kts | 184° |
| 2026-05-05 21:07 | 24.83372 | -70.04408 | 35062 ft | 445 kts | 184° |
| 2026-05-05 21:08 | 24.77237 | -70.04127 | 35062 ft | 445 kts | 184° |
| 2026-05-05 21:08 | 24.71038 | -70.03842 | 35061 ft | 446 kts | 184° |
| 2026-05-05 21:09 | 24.64859 | -70.03558 | 35062 ft | 446 kts | 184° |
| 2026-05-05 21:09 | 24.58635 | -70.03271 | 35062 ft | 446 kts | 184° |
| 2026-05-05 21:10 | 24.52437 | -70.02986 | 35062 ft | 446 kts | 184° |
| 2026-05-05 21:10 | 24.46226 | -70.02700 | 35062 ft | 447 kts | 184° |
| 2026-05-05 21:11 | 24.40041 | -70.02415 | 35062 ft | 447 kts | 184° |
| 2026-05-05 21:11 | 24.33839 | -70.02129 | 35062 ft | 447 kts | 184° |
| 2026-05-05 21:12 | 24.27620 | -70.01842 | 35062 ft | 447 kts | 184° |
| 2026-05-05 21:12 | 24.21411 | -70.01645 | 35062 ft | 445 kts | 186° |
| 2026-05-05 21:13 | 24.15286 | -70.02074 | 35062 ft | 440 kts | 193° |
| 2026-05-05 21:13 | 24.09324 | -70.03172 | 35063 ft | 437 kts | 197° |
| 2026-05-05 21:14 | 24.03359 | -70.04451 | 35062 ft | 438 kts | 197° |
| 2026-05-05 21:14 | 23.97392 | -70.05727 | 35062 ft | 438 kts | 197° |
| 2026-05-05 21:15 | 23.91421 | -70.07000 | 35062 ft | 438 kts | 197° |
| 2026-05-05 21:15 | 23.85443 | -70.08273 | 35062 ft | 438 kts | 197° |
| 2026-05-05 21:16 | 23.79465 | -70.09543 | 35062 ft | 438 kts | 197° |
| 2026-05-05 21:16 | 23.73520 | -70.10805 | 35062 ft | 438 kts | 197° |
| 2026-05-05 21:17 | 23.67537 | -70.12074 | 35062 ft | 438 kts | 197° |
| 2026-05-05 21:17 | 23.61593 | -70.13334 | 35062 ft | 438 kts | 197° |
| 2026-05-05 21:18 | 23.55583 | -70.14606 | 35062 ft | 438 kts | 197° |
| 2026-05-05 21:18 | 23.49637 | -70.15865 | 35062 ft | 438 kts | 197° |
| 2026-05-05 21:19 | 23.43649 | -70.17131 | 35062 ft | 439 kts | 197° |
| 2026-05-05 21:19 | 23.37666 | -70.18394 | 35062 ft | 439 kts | 197° |
| 2026-05-05 21:20 | 23.31679 | -70.19656 | 35062 ft | 439 kts | 197° |
| 2026-05-05 21:20 | 23.25666 | -70.20924 | 35062 ft | 439 kts | 197° |
| 2026-05-05 21:21 | 23.19700 | -70.22180 | 35062 ft | 439 kts | 197° |
| 2026-05-05 21:21 | 23.13709 | -70.23441 | 35062 ft | 440 kts | 197° |
| 2026-05-05 21:22 | 23.07692 | -70.24706 | 35062 ft | 441 kts | 197° |
| 2026-05-05 21:22 | 23.01682 | -70.25967 | 35062 ft | 440 kts | 197° |
| 2026-05-05 21:23 | 22.95668 | -70.27228 | 35062 ft | 440 kts | 197° |
| 2026-05-05 21:23 | 22.89673 | -70.28485 | 35062 ft | 440 kts | 197° |
| 2026-05-05 21:24 | 22.83654 | -70.29747 | 35062 ft | 441 kts | 197° |
| 2026-05-05 21:24 | 22.77654 | -70.31001 | 35061 ft | 441 kts | 197° |
| 2026-05-05 21:25 | 22.71641 | -70.32258 | 35062 ft | 442 kts | 197° |
| 2026-05-05 21:25 | 22.65611 | -70.33518 | 35063 ft | 441 kts | 197° |
| 2026-05-05 21:26 | 22.59590 | -70.34773 | 35062 ft | 441 kts | 197° |
| 2026-05-05 21:26 | 22.53609 | -70.36021 | 35062 ft | 441 kts | 197° |
| 2026-05-05 21:27 | 22.47580 | -70.37277 | 35062 ft | 441 kts | 197° |
| 2026-05-05 21:27 | 22.41595 | -70.38522 | 35062 ft | 441 kts | 197° |
| 2026-05-05 21:28 | 22.35551 | -70.39780 | 35062 ft | 441 kts | 196° |
| 2026-05-05 21:28 | 22.29565 | -70.41022 | 35062 ft | 441 kts | 196° |
| 2026-05-05 21:29 | 22.23541 | -70.42273 | 35062 ft | 441 kts | 196° |
| 2026-05-05 21:29 | 22.17523 | -70.43521 | 35062 ft | 441 kts | 196° |
| 2026-05-05 21:30 | 22.11502 | -70.44769 | 35062 ft | 441 kts | 196° |
| 2026-05-05 21:30 | 22.05480 | -70.46015 | 35062 ft | 441 kts | 196° |
| 2026-05-05 21:31 | 21.99462 | -70.47260 | 35062 ft | 441 kts | 196° |
| 2026-05-05 21:31 | 21.93437 | -70.48506 | 35062 ft | 442 kts | 196° |
| 2026-05-05 21:32 | 21.87433 | -70.49746 | 35062 ft | 442 kts | 196° |
| 2026-05-05 21:32 | 21.81393 | -70.50991 | 35062 ft | 442 kts | 196° |
| 2026-05-05 21:33 | 21.75388 | -70.52228 | 35062 ft | 442 kts | 196° |
| 2026-05-05 21:33 | 21.69349 | -70.53472 | 35062 ft | 442 kts | 196° |
| 2026-05-05 21:34 | 21.63300 | -70.54717 | 35062 ft | 443 kts | 196° |
| 2026-05-05 21:34 | 21.57298 | -70.55950 | 35062 ft | 443 kts | 196° |
| 2026-05-05 21:35 | 21.51230 | -70.57198 | 35062 ft | 443 kts | 196° |
| 2026-05-05 21:35 | 21.45204 | -70.58435 | 35062 ft | 444 kts | 196° |
| 2026-05-05 21:36 | 21.39128 | -70.59680 | 35062 ft | 444 kts | 196° |
| 2026-05-05 21:36 | 21.33076 | -70.60922 | 35061 ft | 444 kts | 196° |
| 2026-05-05 21:37 | 21.27037 | -70.62157 | 35062 ft | 445 kts | 196° |
| 2026-05-05 21:37 | 21.20966 | -70.63399 | 35062 ft | 445 kts | 196° |
| 2026-05-05 21:38 | 21.14918 | -70.64635 | 35062 ft | 445 kts | 196° |
| 2026-05-05 21:38 | 21.08881 | -70.65867 | 35063 ft | 445 kts | 195° |
| 2026-05-05 21:39 | 21.02775 | -70.67113 | 34919 ft | 447 kts | 195° |
| 2026-05-05 21:39 | 20.99755 | -70.67731 | 34267 ft | 449 kts | 195° |
| 2026-05-05 21:39 | 20.96679 | -70.68359 | 33560 ft | 450 kts | 195° |
| 2026-05-05 21:40 | 20.93616 | -70.68984 | 32842 ft | 451 kts | 195° |
| 2026-05-05 21:40 | 20.90555 | -70.69607 | 32107 ft | 453 kts | 195° |
| 2026-05-05 21:40 | 20.87326 | -70.70265 | 31315 ft | 455 kts | 195° |
| 2026-05-05 21:40 | 20.84226 | -70.70896 | 30558 ft | 456 kts | 195° |
| 2026-05-05 21:41 | 20.81116 | -70.71529 | 29787 ft | 457 kts | 195° |
| 2026-05-05 21:41 | 20.78015 | -70.72160 | 29008 ft | 459 kts | 194° |
| 2026-05-05 21:41 | 20.74886 | -70.72795 | 28220 ft | 460 kts | 194° |
| 2026-05-05 21:41 | 20.71733 | -70.73435 | 27514 ft | 458 kts | 194° |
| 2026-05-05 21:42 | 20.68669 | -70.74055 | 27022 ft | 452 kts | 194° |
| 2026-05-05 21:42 | 20.65605 | -70.74674 | 26518 ft | 446 kts | 194° |
| 2026-05-05 21:42 | 20.62594 | -70.75282 | 26011 ft | 440 kts | 194° |
| 2026-05-05 21:42 | 20.59617 | -70.75884 | 25504 ft | 435 kts | 194° |
| 2026-05-05 21:43 | 20.56665 | -70.76482 | 24995 ft | 430 kts | 194° |
| 2026-05-05 21:43 | 20.53727 | -70.77075 | 24487 ft | 426 kts | 194° |
| 2026-05-05 21:43 | 20.50862 | -70.77655 | 23991 ft | 421 kts | 194° |
| 2026-05-05 21:43 | 20.47994 | -70.78235 | 23491 ft | 417 kts | 194° |
| 2026-05-05 21:44 | 20.45199 | -70.78812 | 23000 ft | 413 kts | 196° |
| 2026-05-05 21:44 | 20.42462 | -70.79642 | 22492 ft | 406 kts | 202° |
| 2026-05-05 21:44 | 20.39876 | -70.80814 | 21975 ft | 401 kts | 210° |
| 2026-05-05 21:44 | 20.37475 | -70.82262 | 21469 ft | 396 kts | 214° |
| 2026-05-05 21:45 | 20.35175 | -70.83775 | 20970 ft | 393 kts | 214° |
| 2026-05-05 21:45 | 20.32867 | -70.85312 | 20470 ft | 390 kts | 214° |
| 2026-05-05 21:45 | 20.30576 | -70.86835 | 19969 ft | 388 kts | 214° |
| 2026-05-05 21:45 | 20.28299 | -70.88345 | 19476 ft | 385 kts | 214° |
| 2026-05-05 21:46 | 20.26043 | -70.89839 | 18980 ft | 383 kts | 214° |
| 2026-05-05 21:46 | 20.23772 | -70.91338 | 18481 ft | 381 kts | 214° |
| 2026-05-05 21:46 | 20.21541 | -70.92809 | 17988 ft | 378 kts | 214° |
| 2026-05-05 21:46 | 20.19309 | -70.94281 | 17493 ft | 376 kts | 214° |
| 2026-05-05 21:47 | 20.17121 | -70.95724 | 16999 ft | 374 kts | 213° |
| 2026-05-05 21:47 | 20.14918 | -70.97175 | 16481 ft | 373 kts | 213° |
| 2026-05-05 21:47 | 20.12721 | -70.98621 | 15978 ft | 371 kts | 213° |
| 2026-05-05 21:47 | 20.10536 | -71.00059 | 15554 ft | 366 kts | 213° |
| 2026-05-05 21:48 | 20.08391 | -71.01467 | 15349 ft | 355 kts | 213° |
| 2026-05-05 21:48 | 20.06331 | -71.02819 | 15206 ft | 343 kts | 213° |
| 2026-05-05 21:48 | 20.04334 | -71.04129 | 15050 ft | 332 kts | 213° |
| 2026-05-05 21:48 | 20.02389 | -71.05405 | 14894 ft | 322 kts | 213° |
| 2026-05-05 21:49 | 20.00541 | -71.06618 | 14752 ft | 311 kts | 213° |
| 2026-05-05 21:49 | 19.98727 | -71.07810 | 14602 ft | 302 kts | 212° |
| 2026-05-05 21:49 | 19.96980 | -71.08957 | 14496 ft | 291 kts | 212° |
| 2026-05-05 21:49 | 19.95289 | -71.10066 | 14385 ft | 280 kts | 212° |
| 2026-05-05 21:50 | 19.93564 | -71.10946 | 14218 ft | 273 kts | 192° |
| 2026-05-05 21:50 | 19.91680 | -71.10916 | 13926 ft | 275 kts | 167° |
| 2026-05-05 21:50 | 19.89858 | -71.10321 | 13586 ft | 274 kts | 163° |
| 2026-05-05 21:50 | 19.88055 | -71.09680 | 13255 ft | 273 kts | 163° |
| 2026-05-05 21:51 | 19.86264 | -71.09049 | 12931 ft | 271 kts | 163° |
| 2026-05-05 21:51 | 19.84488 | -71.08437 | 12615 ft | 270 kts | 163° |
| 2026-05-05 21:51 | 19.82713 | -71.07834 | 12297 ft | 268 kts | 163° |
| 2026-05-05 21:51 | 19.80942 | -71.07235 | 11982 ft | 266 kts | 163° |
| 2026-05-05 21:52 | 19.77451 | -71.06062 | 11360 ft | 262 kts | 162° |
| 2026-05-05 21:52 | 19.75706 | -71.05476 | 11045 ft | 261 kts | 162° |
| 2026-05-05 21:52 | 19.73983 | -71.04897 | 10731 ft | 259 kts | 162° |
| 2026-05-05 21:53 | 19.72273 | -71.04324 | 10420 ft | 258 kts | 162° |
| 2026-05-05 21:53 | 19.70579 | -71.03755 | 10115 ft | 256 kts | 162° |
| 2026-05-05 21:53 | 19.68901 | -71.03191 | 9807 ft | 254 kts | 162° |
| 2026-05-05 21:53 | 19.67223 | -71.02628 | 9503 ft | 252 kts | 162° |
| 2026-05-05 21:54 | 19.65565 | -71.02072 | 9199 ft | 251 kts | 161° |
| 2026-05-05 21:54 | 19.63886 | -71.01511 | 8893 ft | 250 kts | 161° |
| 2026-05-05 21:54 | 19.62236 | -71.00955 | 8589 ft | 249 kts | 161° |
| 2026-05-05 21:54 | 19.60608 | -71.00409 | 8283 ft | 248 kts | 161° |
| 2026-05-05 21:55 | 19.58957 | -70.99854 | 7971 ft | 247 kts | 161° |
| 2026-05-05 21:55 | 19.57332 | -70.99309 | 7661 ft | 245 kts | 161° |
| 2026-05-05 21:55 | 19.55726 | -70.98759 | 7355 ft | 244 kts | 157° |
| 2026-05-05 21:55 | 19.54261 | -70.97871 | 7110 ft | 241 kts | 140° |
| 2026-05-05 21:56 | 19.53039 | -70.96649 | 6823 ft | 241 kts | 134° |
| 2026-05-05 21:56 | 19.51890 | -70.95387 | 6531 ft | 239 kts | 133° |
| 2026-05-05 21:56 | 19.50742 | -70.94115 | 6231 ft | 238 kts | 134° |
| 2026-05-05 21:56 | 19.49606 | -70.92864 | 5926 ft | 237 kts | 135° |
| 2026-05-05 21:57 | 19.48443 | -70.91603 | 5613 ft | 236 kts | 134° |
| 2026-05-05 21:57 | 19.47403 | -70.90295 | 5303 ft | 235 kts | 120° |
| 2026-05-05 21:57 | 19.46767 | -70.88699 | 4999 ft | 235 kts | 107° |
| 2026-05-05 21:57 | 19.46384 | -70.87022 | 4716 ft | 235 kts | 103° |
| 2026-05-05 21:58 | 19.46056 | -70.85323 | 4432 ft | 234 kts | 103° |
| 2026-05-05 21:58 | 19.45722 | -70.83654 | 4228 ft | 232 kts | 104° |
| 2026-05-05 21:58 | 19.45365 | -70.81976 | 4128 ft | 233 kts | 105° |
| 2026-05-05 21:58 | 19.44995 | -70.80297 | 4037 ft | 233 kts | 104° |
| 2026-05-05 21:59 | 19.44621 | -70.78619 | 3786 ft | 235 kts | 105° |
| 2026-05-05 21:59 | 19.44245 | -70.76931 | 3438 ft | 237 kts | 104° |
| 2026-05-05 21:59 | 19.43873 | -70.75254 | 2989 ft | 229 kts | 104° |
| 2026-05-05 21:59 | 19.43512 | -70.73620 | 2686 ft | 220 kts | 104° |
| 2026-05-05 22:00 | 19.43167 | -70.72062 | 2402 ft | 213 kts | 103° |
| 2026-05-05 22:00 | 19.42840 | -70.70574 | 2214 ft | 198 kts | 104° |
| 2026-05-05 22:00 | 19.42539 | -70.69211 | 1978 ft | 185 kts | 103° |
| 2026-05-05 22:00 | 19.42255 | -70.67928 | 1715 ft | 170 kts | 102° |
| 2026-05-05 22:01 | 19.41999 | -70.66773 | 1475 ft | 154 kts | 102° |
| 2026-05-05 22:01 | 19.41767 | -70.65723 | 1283 ft | 143 kts | 101° |
| 2026-05-05 22:01 | 19.41542 | -70.64693 | 1120 ft | 141 kts | 102° |
| 2026-05-05 22:01 | 19.41317 | -70.63686 | 942 ft | 140 kts | 103° |
| 2026-05-05 22:02 | 19.41097 | -70.62688 | 764 ft | 139 kts | 103° |
| 2026-05-05 22:02 | 19.40879 | -70.61683 | 601 ft | 138 kts | 103° |
| 2026-05-05 22:02 | 19.40675 | -70.60780 | 573 ft | 108 kts | 101° |
| 2026-05-05 22:02 | 19.40545 | -70.60180 | 571 ft | 59 kts | 101° |
| 2026-05-05 22:03 | 19.40460 | -70.59795 | 569 ft | 51 kts | 104° |
| 2026-05-05 22:03 | 19.40393 | -70.59473 | 566 ft | 31 kts | 101° |
| 2026-05-05 22:03 | 19.40344 | -70.59322 | 563 ft | 14 kts | 133° |
| 2026-05-05 22:03 | 19.40344 | -70.59307 | 563 ft | 6 kts | 289° |
| 2026-05-05 22:04 | 19.40375 | -70.59422 | 565 ft | 23 kts | 284° |
| 2026-05-05 22:04 | 19.40410 | -70.59581 | 568 ft | 21 kts | 283° |
| 2026-05-05 22:04 | 19.40445 | -70.59726 | 569 ft | 19 kts | 284° |
| 2026-05-05 22:04 | 19.40477 | -70.59861 | 569 ft | 18 kts | 283° |
| 2026-05-05 22:05 | 19.40484 | -70.59947 | 569 ft | 0 kts | 248° |
| 2026-05-05 22:05 | 19.40474 | -70.59963 | 569 ft | 6 kts | 224° |
| 2026-05-05 22:06 | 19.40411 | -70.59988 | 568 ft | 10 kts | 192° |
| 2026-05-05 22:06 | 19.40389 | -70.59994 | 568 ft | 0 kts | 191° |
| 2026-05-05 22:06 | 19.40383 | -70.59995 | 567 ft | 1 kts | 191° |
| 2026-05-05 22:06 | 19.40364 | -70.60001 | 567 ft | 3 kts | 202° |
| 2026-05-05 22:07 | 19.40336 | -70.60014 | 567 ft | 4 kts | 207° |
| 2026-05-05 22:07 | 19.40309 | -70.60034 | 567 ft | 6 kts | 225° |
| 2026-05-05 22:07 | 19.40263 | -70.60089 | 568 ft | 9 kts | 230° |
| 2026-05-05 22:07 | 19.40251 | -70.60105 | 568 ft | 0 kts | 231° |